sensor_id;sensor_type;location;lat;lon;timestamp;temperature;humidity
26745;DHT22;14342;50.960;13.880;2022-08-30T00:01:20;17.30;99.90
26745;DHT22;14342;50.960;13.880;2022-08-30T00:02:22;17.20;99.90
26745;DHT22;14342;50.960;13.880;2022-08-30T00:03:23;17.20;99.90
26745;DHT22;14342;50.960;13.880;2022-08-30T00:04:26;17.20;99.90
26745;DHT22;14342;50.960;13.880;2022-08-30T00:05:27;17.20;99.90
26745;DHT22;14342;50.960;13.880;2022-08-30T00:06:30;17.40;99.90
26745;DHT22;14342;50.960;13.880;2022-08-30T00:07:31;17.20;99.90
26745;DHT22;14342;50.960;13.880;2022-08-30T00:08:33;17.20;99.90
26745;DHT22;14342;50.960;13.880;2022-08-30T00:09:34;16.90;99.90
26745;DHT22;14342;50.960;13.880;2022-08-30T00:10:36;17.10;99.90
26745;DHT22;14342;50.960;13.880;2022-08-30T00:11:37;17.10;99.90
26745;DHT22;14342;50.960;13.880;2022-08-30T00:12:39;17.10;99.90
26745;DHT22;14342;50.960;13.880;2022-08-30T00:13:40;17.10;99.90
26745;DHT22;14342;50.960;13.880;2022-08-30T00:14:42;17.20;99.90
26745;DHT22;14342;50.960;13.880;2022-08-30T00:15:43;17.20;99.90
26745;DHT22;14342;50.960;13.880;2022-08-30T00:16:44;17.10;99.90
26745;DHT22;14342;50.960;13.880;2022-08-30T00:17:45;17.10;99.90
26745;DHT22;14342;50.960;13.880;2022-08-30T00:18:47;17.10;99.90
26745;DHT22;14342;50.960;13.880;2022-08-30T00:19:47;17.00;99.90
26745;DHT22;14342;50.960;13.880;2022-08-30T00:20:49;17.00;99.90
26745;DHT22;14342;50.960;13.880;2022-08-30T00:21:51;17.00;99.90
26745;DHT22;14342;50.960;13.880;2022-08-30T00:22:53;17.00;99.90
26745;DHT22;14342;50.960;13.880;2022-08-30T00:23:54;17.00;99.90
26745;DHT22;14342;50.960;13.880;2022-08-30T00:24:55;17.00;99.90
26745;DHT22;14342;50.960;13.880;2022-08-30T00:25:56;16.90;99.90
26745;DHT22;14342;50.960;13.880;2022-08-30T00:26:57;16.90;99.90
26745;DHT22;14342;50.960;13.880;2022-08-30T00:27:58;16.90;99.90
26745;DHT22;14342;50.960;13.880;2022-08-30T00:28:59;16.90;99.90
26745;DHT22;14342;50.960;13.880;2022-08-30T00:30:00;16.90;99.90
26745;DHT22;14342;50.960;13.880;2022-08-30T00:31:02;16.90;99.90
26745;DHT22;14342;50.960;13.880;2022-08-30T00:32:03;16.90;99.90
26745;DHT22;14342;50.960;13.880;2022-08-30T00:33:04;16.80;99.90
26745;DHT22;14342;50.960;13.880;2022-08-30T00:34:05;16.80;99.90
26745;DHT22;14342;50.960;13.880;2022-08-30T00:35:07;16.80;99.90
26745;DHT22;14342;50.960;13.880;2022-08-30T00:36:08;16.70;99.90
26745;DHT22;14342;50.960;13.880;2022-08-30T00:37:11;16.70;99.90
26745;DHT22;14342;50.960;13.880;2022-08-30T00:38:12;16.70;99.90
26745;DHT22;14342;50.960;13.880;2022-08-30T00:39:14;16.70;99.90
26745;DHT22;14342;50.960;13.880;2022-08-30T00:40:15;16.70;99.90
26745;DHT22;14342;50.960;13.880;2022-08-30T00:41:17;16.70;99.90
26745;DHT22;14342;50.960;13.880;2022-08-30T00:42:18;16.70;99.90
26745;DHT22;14342;50.960;13.880;2022-08-30T00:43:21;16.60;99.90
26745;DHT22;14342;50.960;13.880;2022-08-30T00:44:22;16.50;99.90
26745;DHT22;14342;50.960;13.880;2022-08-30T00:45:25;16.50;99.90
26745;DHT22;14342;50.960;13.880;2022-08-30T00:46:26;16.60;99.90
26745;DHT22;14342;50.960;13.880;2022-08-30T00:47:27;16.60;99.90
26745;DHT22;14342;50.960;13.880;2022-08-30T00:48:28;16.60;99.90
26745;DHT22;14342;50.960;13.880;2022-08-30T00:49:30;16.50;99.90
26745;DHT22;14342;50.960;13.880;2022-08-30T00:50:33;16.40;99.90
26745;DHT22;14342;50.960;13.880;2022-08-30T00:51:36;16.50;99.90
26745;DHT22;14342;50.960;13.880;2022-08-30T00:52:38;16.40;99.90
26745;DHT22;14342;50.960;13.880;2022-08-30T00:53:41;16.40;99.90
26745;DHT22;14342;50.960;13.880;2022-08-30T00:54:43;16.50;99.90
26745;DHT22;14342;50.960;13.880;2022-08-30T00:55:46;16.50;99.90
26745;DHT22;14342;50.960;13.880;2022-08-30T00:56:48;16.30;99.90
26745;DHT22;14342;50.960;13.880;2022-08-30T00:57:50;16.50;99.90
26745;DHT22;14342;50.960;13.880;2022-08-30T00:58:53;16.50;99.90
26745;DHT22;14342;50.960;13.880;2022-08-30T00:59:55;16.50;99.90
26745;DHT22;14342;50.960;13.880;2022-08-30T01:00:57;16.50;99.90
26745;DHT22;14342;50.960;13.880;2022-08-30T01:02:00;16.50;99.90
26745;DHT22;14342;50.960;13.880;2022-08-30T01:03:02;16.40;99.90
26745;DHT22;14342;50.960;13.880;2022-08-30T01:04:05;16.40;99.90
26745;DHT22;14342;50.960;13.880;2022-08-30T01:05:07;16.30;99.90
26745;DHT22;14342;50.960;13.880;2022-08-30T01:06:10;16.30;99.90
26745;DHT22;14342;50.960;13.880;2022-08-30T01:07:11;16.30;99.90
26745;DHT22;14342;50.960;13.880;2022-08-30T01:08:14;16.30;99.90
26745;DHT22;14342;50.960;13.880;2022-08-30T01:09:14;16.30;99.90
26745;DHT22;14342;50.960;13.880;2022-08-30T01:10:16;16.40;99.90
26745;DHT22;14342;50.960;13.880;2022-08-30T01:11:17;16.30;99.90
26745;DHT22;14342;50.960;13.880;2022-08-30T01:12:20;16.30;99.90
26745;DHT22;14342;50.960;13.880;2022-08-30T01:13:22;16.30;99.90
26745;DHT22;14342;50.960;13.880;2022-08-30T01:14:25;16.30;99.90
26745;DHT22;14342;50.960;13.880;2022-08-30T01:15:27;16.30;99.90
26745;DHT22;14342;50.960;13.880;2022-08-30T01:16:29;16.30;99.90
26745;DHT22;14342;50.960;13.880;2022-08-30T01:17:30;16.30;99.90
26745;DHT22;14342;50.960;13.880;2022-08-30T01:18:32;16.30;99.90
26745;DHT22;14342;50.960;13.880;2022-08-30T01:19:35;16.30;99.90
26745;DHT22;14342;50.960;13.880;2022-08-30T01:20:39;16.30;99.90
26745;DHT22;14342;50.960;13.880;2022-08-30T01:21:44;16.30;99.90
26745;DHT22;14342;50.960;13.880;2022-08-30T01:22:54;16.20;99.90
26745;DHT22;14342;50.960;13.880;2022-08-30T01:23:56;16.20;99.90
26745;DHT22;14342;50.960;13.880;2022-08-30T01:24:58;16.10;99.90
26745;DHT22;14342;50.960;13.880;2022-08-30T01:26:01;16.10;99.90
26745;DHT22;14342;50.960;13.880;2022-08-30T01:27:02;16.00;99.90
26745;DHT22;14342;50.960;13.880;2022-08-30T01:28:05;16.00;99.90
26745;DHT22;14342;50.960;13.880;2022-08-30T01:29:07;15.90;99.90
26745;DHT22;14342;50.960;13.880;2022-08-30T01:30:10;15.80;99.90
26745;DHT22;14342;50.960;13.880;2022-08-30T01:31:11;15.80;99.90
26745;DHT22;14342;50.960;13.880;2022-08-30T01:32:16;15.80;99.90
26745;DHT22;14342;50.960;13.880;2022-08-30T01:33:18;15.70;99.90
26745;DHT22;14342;50.960;13.880;2022-08-30T01:34:20;15.70;99.90
26745;DHT22;14342;50.960;13.880;2022-08-30T01:35:21;15.80;99.90
26745;DHT22;14342;50.960;13.880;2022-08-30T01:36:22;15.80;99.90
26745;DHT22;14342;50.960;13.880;2022-08-30T01:37:25;15.70;99.90
26745;DHT22;14342;50.960;13.880;2022-08-30T01:38:29;15.80;99.90
26745;DHT22;14342;50.960;13.880;2022-08-30T01:39:33;15.80;99.90
26745;DHT22;14342;50.960;13.880;2022-08-30T01:40:33;15.80;99.90
26745;DHT22;14342;50.960;13.880;2022-08-30T01:41:36;15.70;99.90
26745;DHT22;14342;50.960;13.880;2022-08-30T01:42:36;15.80;99.90
26745;DHT22;14342;50.960;13.880;2022-08-30T01:43:38;15.30;99.90
26745;DHT22;14342;50.960;13.880;2022-08-30T01:44:39;15.80;99.90
26745;DHT22;14342;50.960;13.880;2022-08-30T01:45:40;15.90;99.90
26745;DHT22;14342;50.960;13.880;2022-08-30T01:46:46;15.90;99.90
26745;DHT22;14342;50.960;13.880;2022-08-30T01:47:47;15.90;99.90
26745;DHT22;14342;50.960;13.880;2022-08-30T01:48:49;16.00;99.90
26745;DHT22;14342;50.960;13.880;2022-08-30T01:49:53;16.00;99.90
26745;DHT22;14342;50.960;13.880;2022-08-30T01:50:53;15.90;99.90
26745;DHT22;14342;50.960;13.880;2022-08-30T01:51:55;15.90;99.90
26745;DHT22;14342;50.960;13.880;2022-08-30T01:52:55;15.90;99.90
26745;DHT22;14342;50.960;13.880;2022-08-30T01:53:59;15.90;99.90
26745;DHT22;14342;50.960;13.880;2022-08-30T01:55:00;15.90;99.90
26745;DHT22;14342;50.960;13.880;2022-08-30T01:56:02;16.00;99.90
26745;DHT22;14342;50.960;13.880;2022-08-30T01:57:03;16.00;99.90
26745;DHT22;14342;50.960;13.880;2022-08-30T01:58:05;16.00;99.90
26745;DHT22;14342;50.960;13.880;2022-08-30T01:59:05;16.00;99.90
26745;DHT22;14342;50.960;13.880;2022-08-30T02:00:08;16.10;99.90
26745;DHT22;14342;50.960;13.880;2022-08-30T02:01:10;16.00;99.90
26745;DHT22;14342;50.960;13.880;2022-08-30T02:02:13;16.10;99.90
26745;DHT22;14342;50.960;13.880;2022-08-30T02:03:14;16.10;99.90
26745;DHT22;14342;50.960;13.880;2022-08-30T02:04:16;16.10;99.90
26745;DHT22;14342;50.960;13.880;2022-08-30T02:05:17;15.70;99.90
26745;DHT22;14342;50.960;13.880;2022-08-30T02:06:19;16.40;99.90
26745;DHT22;14342;50.960;13.880;2022-08-30T02:07:20;16.10;99.90
26745;DHT22;14342;50.960;13.880;2022-08-30T02:08:21;16.00;99.90
26745;DHT22;14342;50.960;13.880;2022-08-30T02:09:23;16.10;99.90
26745;DHT22;14342;50.960;13.880;2022-08-30T02:10:25;16.10;99.90
26745;DHT22;14342;50.960;13.880;2022-08-30T02:11:25;16.10;99.90
26745;DHT22;14342;50.960;13.880;2022-08-30T02:12:27;16.10;99.90
26745;DHT22;14342;50.960;13.880;2022-08-30T02:13:29;16.10;99.90
26745;DHT22;14342;50.960;13.880;2022-08-30T02:14:31;16.10;99.90
26745;DHT22;14342;50.960;13.880;2022-08-30T02:15:31;16.10;99.90
26745;DHT22;14342;50.960;13.880;2022-08-30T02:16:34;16.10;99.90
26745;DHT22;14342;50.960;13.880;2022-08-30T02:17:35;16.10;99.90
26745;DHT22;14342;50.960;13.880;2022-08-30T02:18:37;16.10;99.90
26745;DHT22;14342;50.960;13.880;2022-08-30T02:19:39;16.10;99.90
26745;DHT22;14342;50.960;13.880;2022-08-30T02:20:40;16.10;99.90
26745;DHT22;14342;50.960;13.880;2022-08-30T02:21:41;16.10;99.90
26745;DHT22;14342;50.960;13.880;2022-08-30T02:22:43;16.10;99.90
26745;DHT22;14342;50.960;13.880;2022-08-30T02:23:43;16.10;99.90
26745;DHT22;14342;50.960;13.880;2022-08-30T02:24:46;16.00;99.90
26745;DHT22;14342;50.960;13.880;2022-08-30T02:25:47;16.10;99.90
26745;DHT22;14342;50.960;13.880;2022-08-30T02:26:48;16.00;99.90
26745;DHT22;14342;50.960;13.880;2022-08-30T02:27:49;16.00;99.90
26745;DHT22;14342;50.960;13.880;2022-08-30T02:28:51;16.00;99.90
26745;DHT22;14342;50.960;13.880;2022-08-30T02:29:52;16.00;99.90
26745;DHT22;14342;50.960;13.880;2022-08-30T02:30:53;16.00;99.90
26745;DHT22;14342;50.960;13.880;2022-08-30T02:31:54;16.00;99.90
26745;DHT22;14342;50.960;13.880;2022-08-30T02:32:55;16.00;99.90
26745;DHT22;14342;50.960;13.880;2022-08-30T02:33:56;16.00;99.90
26745;DHT22;14342;50.960;13.880;2022-08-30T02:34:58;15.90;99.90
26745;DHT22;14342;50.960;13.880;2022-08-30T02:35:58;15.90;99.90
26745;DHT22;14342;50.960;13.880;2022-08-30T02:37:00;15.90;99.90
26745;DHT22;14342;50.960;13.880;2022-08-30T02:38:00;15.90;99.90
26745;DHT22;14342;50.960;13.880;2022-08-30T02:39:02;15.90;99.90
26745;DHT22;14342;50.960;13.880;2022-08-30T02:40:04;15.90;99.90
26745;DHT22;14342;50.960;13.880;2022-08-30T02:41:06;15.90;99.90
26745;DHT22;14342;50.960;13.880;2022-08-30T02:42:07;15.90;99.90
26745;DHT22;14342;50.960;13.880;2022-08-30T02:43:09;15.90;99.90
26745;DHT22;14342;50.960;13.880;2022-08-30T02:44:09;16.00;99.90
26745;DHT22;14342;50.960;13.880;2022-08-30T02:45:11;16.00;99.90
26745;DHT22;14342;50.960;13.880;2022-08-30T02:46:12;15.90;99.90
26745;DHT22;14342;50.960;13.880;2022-08-30T02:47:13;16.00;99.90
26745;DHT22;14342;50.960;13.880;2022-08-30T02:48:14;16.00;99.90
26745;DHT22;14342;50.960;13.880;2022-08-30T02:49:16;15.90;99.90
26745;DHT22;14342;50.960;13.880;2022-08-30T02:50:17;16.00;99.90
26745;DHT22;14342;50.960;13.880;2022-08-30T02:51:18;15.90;99.90
26745;DHT22;14342;50.960;13.880;2022-08-30T02:52:19;15.90;99.90
26745;DHT22;14342;50.960;13.880;2022-08-30T02:53:21;15.90;99.90
26745;DHT22;14342;50.960;13.880;2022-08-30T02:54:21;15.90;99.90
26745;DHT22;14342;50.960;13.880;2022-08-30T02:55:24;15.90;99.90
26745;DHT22;14342;50.960;13.880;2022-08-30T02:56:25;16.00;99.90
26745;DHT22;14342;50.960;13.880;2022-08-30T02:57:27;16.00;99.90
26745;DHT22;14342;50.960;13.880;2022-08-30T02:58:28;16.00;99.90
26745;DHT22;14342;50.960;13.880;2022-08-30T02:59:30;16.00;99.90
26745;DHT22;14342;50.960;13.880;2022-08-30T03:00:31;16.00;99.90
26745;DHT22;14342;50.960;13.880;2022-08-30T03:01:32;16.00;99.90
26745;DHT22;14342;50.960;13.880;2022-08-30T03:02:35;16.00;99.90
26745;DHT22;14342;50.960;13.880;2022-08-30T03:03:37;16.00;99.90
26745;DHT22;14342;50.960;13.880;2022-08-30T03:04:38;16.00;99.90
26745;DHT22;14342;50.960;13.880;2022-08-30T03:05:39;16.00;99.90
26745;DHT22;14342;50.960;13.880;2022-08-30T03:06:40;16.00;99.90
26745;DHT22;14342;50.960;13.880;2022-08-30T03:07:42;16.00;99.90
26745;DHT22;14342;50.960;13.880;2022-08-30T03:08:43;16.00;99.90
26745;DHT22;14342;50.960;13.880;2022-08-30T03:09:44;16.00;99.90
26745;DHT22;14342;50.960;13.880;2022-08-30T03:10:46;16.00;99.90
26745;DHT22;14342;50.960;13.880;2022-08-30T03:11:49;15.90;99.90
26745;DHT22;14342;50.960;13.880;2022-08-30T03:12:49;15.80;99.90
26745;DHT22;14342;50.960;13.880;2022-08-30T03:13:51;15.80;99.90
26745;DHT22;14342;50.960;13.880;2022-08-30T03:14:52;15.80;99.90
26745;DHT22;14342;50.960;13.880;2022-08-30T03:15:53;16.10;99.90
26745;DHT22;14342;50.960;13.880;2022-08-30T03:16:54;15.80;99.90
26745;DHT22;14342;50.960;13.880;2022-08-30T03:17:56;15.80;99.90
26745;DHT22;14342;50.960;13.880;2022-08-30T03:18:56;15.80;99.90
26745;DHT22;14342;50.960;13.880;2022-08-30T03:19:58;15.80;99.90
26745;DHT22;14342;50.960;13.880;2022-08-30T03:21:01;15.80;99.90
26745;DHT22;14342;50.960;13.880;2022-08-30T03:22:04;15.80;99.90
26745;DHT22;14342;50.960;13.880;2022-08-30T03:23:05;15.80;99.90
26745;DHT22;14342;50.960;13.880;2022-08-30T03:24:06;15.80;99.90
26745;DHT22;14342;50.960;13.880;2022-08-30T03:25:07;15.80;99.90
26745;DHT22;14342;50.960;13.880;2022-08-30T03:26:10;15.80;99.90
26745;DHT22;14342;50.960;13.880;2022-08-30T03:27:12;15.80;99.90
26745;DHT22;14342;50.960;13.880;2022-08-30T03:28:14;15.80;99.90
26745;DHT22;14342;50.960;13.880;2022-08-30T03:29:15;15.80;99.90
26745;DHT22;14342;50.960;13.880;2022-08-30T03:30:16;15.80;99.90
26745;DHT22;14342;50.960;13.880;2022-08-30T03:31:17;15.90;99.90
26745;DHT22;14342;50.960;13.880;2022-08-30T03:32:19;15.80;99.90
26745;DHT22;14342;50.960;13.880;2022-08-30T03:33:20;15.80;99.90
26745;DHT22;14342;50.960;13.880;2022-08-30T03:34:21;15.80;99.90
26745;DHT22;14342;50.960;13.880;2022-08-30T03:35:22;15.80;99.90
26745;DHT22;14342;50.960;13.880;2022-08-30T03:36:24;15.80;99.90
26745;DHT22;14342;50.960;13.880;2022-08-30T03:37:25;15.80;99.90
26745;DHT22;14342;50.960;13.880;2022-08-30T03:38:27;15.80;99.90
26745;DHT22;14342;50.960;13.880;2022-08-30T03:39:28;15.90;99.90
26745;DHT22;14342;50.960;13.880;2022-08-30T03:40:29;15.80;99.90
26745;DHT22;14342;50.960;13.880;2022-08-30T03:41:32;15.80;99.90
26745;DHT22;14342;50.960;13.880;2022-08-30T03:42:32;15.80;99.90
26745;DHT22;14342;50.960;13.880;2022-08-30T03:43:34;15.80;99.90
26745;DHT22;14342;50.960;13.880;2022-08-30T03:44:34;15.80;99.90
26745;DHT22;14342;50.960;13.880;2022-08-30T03:45:36;15.90;99.90
26745;DHT22;14342;50.960;13.880;2022-08-30T03:46:37;15.80;99.90
26745;DHT22;14342;50.960;13.880;2022-08-30T03:47:38;15.80;99.90
26745;DHT22;14342;50.960;13.880;2022-08-30T03:48:39;15.80;99.90
26745;DHT22;14342;50.960;13.880;2022-08-30T03:49:41;15.80;99.90
26745;DHT22;14342;50.960;13.880;2022-08-30T03:50:42;15.70;99.90
26745;DHT22;14342;50.960;13.880;2022-08-30T03:51:43;15.70;99.90
26745;DHT22;14342;50.960;13.880;2022-08-30T03:52:44;15.70;99.90
26745;DHT22;14342;50.960;13.880;2022-08-30T03:53:45;15.70;99.90
26745;DHT22;14342;50.960;13.880;2022-08-30T03:54:46;15.70;99.90
26745;DHT22;14342;50.960;13.880;2022-08-30T03:55:48;15.80;99.90
26745;DHT22;14342;50.960;13.880;2022-08-30T03:56:50;15.60;99.90
26745;DHT22;14342;50.960;13.880;2022-08-30T03:57:51;15.50;99.90
26745;DHT22;14342;50.960;13.880;2022-08-30T03:58:52;15.30;99.90
26745;DHT22;14342;50.960;13.880;2022-08-30T03:59:53;15.30;99.90
26745;DHT22;14342;50.960;13.880;2022-08-30T04:00:54;15.30;99.90
26745;DHT22;14342;50.960;13.880;2022-08-30T04:01:55;15.30;99.90
26745;DHT22;14342;50.960;13.880;2022-08-30T04:02:58;15.30;99.90
26745;DHT22;14342;50.960;13.880;2022-08-30T04:04:00;15.40;99.90
26745;DHT22;14342;50.960;13.880;2022-08-30T04:05:00;15.40;99.90
26745;DHT22;14342;50.960;13.880;2022-08-30T04:06:02;15.30;99.90
26745;DHT22;14342;50.960;13.880;2022-08-30T04:07:03;15.30;99.90
26745;DHT22;14342;50.960;13.880;2022-08-30T04:08:04;15.30;99.90
26745;DHT22;14342;50.960;13.880;2022-08-30T04:09:05;15.30;99.90
26745;DHT22;14342;50.960;13.880;2022-08-30T04:10:07;15.30;99.90
26745;DHT22;14342;50.960;13.880;2022-08-30T04:11:08;15.20;99.90
26745;DHT22;14342;50.960;13.880;2022-08-30T04:12:11;15.20;99.90
26745;DHT22;14342;50.960;13.880;2022-08-30T04:13:11;15.10;99.90
26745;DHT22;14342;50.960;13.880;2022-08-30T04:14:13;15.10;99.90
26745;DHT22;14342;50.960;13.880;2022-08-30T04:15:14;15.10;99.90
26745;DHT22;14342;50.960;13.880;2022-08-30T04:16:15;15.20;99.90
26745;DHT22;14342;50.960;13.880;2022-08-30T04:17:16;15.20;99.90
26745;DHT22;14342;50.960;13.880;2022-08-30T04:18:18;15.20;99.90
26745;DHT22;14342;50.960;13.880;2022-08-30T04:19:18;15.20;99.90
26745;DHT22;14342;50.960;13.880;2022-08-30T04:20:20;15.30;99.90
26745;DHT22;14342;50.960;13.880;2022-08-30T04:21:21;15.20;99.90
26745;DHT22;14342;50.960;13.880;2022-08-30T04:22:22;15.20;99.90
26745;DHT22;14342;50.960;13.880;2022-08-30T04:23:23;15.20;99.90
26745;DHT22;14342;50.960;13.880;2022-08-30T04:24:24;15.20;99.90
26745;DHT22;14342;50.960;13.880;2022-08-30T04:25:25;15.30;99.90
26745;DHT22;14342;50.960;13.880;2022-08-30T04:26:27;15.30;99.90
26745;DHT22;14342;50.960;13.880;2022-08-30T04:27:29;15.30;99.90
26745;DHT22;14342;50.960;13.880;2022-08-30T04:28:30;15.20;99.90
26745;DHT22;14342;50.960;13.880;2022-08-30T04:29:31;15.20;99.90
26745;DHT22;14342;50.960;13.880;2022-08-30T04:30:33;15.10;99.90
26745;DHT22;14342;50.960;13.880;2022-08-30T04:31:33;15.10;99.90
26745;DHT22;14342;50.960;13.880;2022-08-30T04:32:35;15.10;99.90
26745;DHT22;14342;50.960;13.880;2022-08-30T04:33:36;15.10;99.90
26745;DHT22;14342;50.960;13.880;2022-08-30T04:34:37;15.10;99.90
26745;DHT22;14342;50.960;13.880;2022-08-30T04:35:39;15.00;99.90
26745;DHT22;14342;50.960;13.880;2022-08-30T04:36:41;15.00;99.90
26745;DHT22;14342;50.960;13.880;2022-08-30T04:37:41;15.10;99.90
26745;DHT22;14342;50.960;13.880;2022-08-30T04:38:43;15.10;99.90
26745;DHT22;14342;50.960;13.880;2022-08-30T04:39:43;15.00;99.90
26745;DHT22;14342;50.960;13.880;2022-08-30T04:40:45;15.00;99.90
26745;DHT22;14342;50.960;13.880;2022-08-30T04:41:47;15.10;99.90
26745;DHT22;14342;50.960;13.880;2022-08-30T04:42:50;15.00;99.90
26745;DHT22;14342;50.960;13.880;2022-08-30T04:43:53;15.10;99.90
26745;DHT22;14342;50.960;13.880;2022-08-30T04:44:55;15.10;99.90
26745;DHT22;14342;50.960;13.880;2022-08-30T04:45:55;15.10;99.90
26745;DHT22;14342;50.960;13.880;2022-08-30T04:46:57;15.20;99.90
26745;DHT22;14342;50.960;13.880;2022-08-30T04:47:58;15.20;99.90
26745;DHT22;14342;50.960;13.880;2022-08-30T04:48:59;15.20;99.90
26745;DHT22;14342;50.960;13.880;2022-08-30T04:50:00;15.30;99.90
26745;DHT22;14342;50.960;13.880;2022-08-30T04:51:03;15.30;99.90
26745;DHT22;14342;50.960;13.880;2022-08-30T04:52:04;15.30;99.90
26745;DHT22;14342;50.960;13.880;2022-08-30T04:53:08;15.30;99.90
26745;DHT22;14342;50.960;13.880;2022-08-30T04:54:08;15.10;99.90
26745;DHT22;14342;50.960;13.880;2022-08-30T04:55:10;15.00;99.90
26745;DHT22;14342;50.960;13.880;2022-08-30T04:56:13;14.90;99.90
26745;DHT22;14342;50.960;13.880;2022-08-30T04:57:15;14.90;99.90
26745;DHT22;14342;50.960;13.880;2022-08-30T04:58:18;14.90;99.90
26745;DHT22;14342;50.960;13.880;2022-08-30T04:59:19;15.00;99.90
26745;DHT22;14342;50.960;13.880;2022-08-30T05:00:21;15.00;99.90
26745;DHT22;14342;50.960;13.880;2022-08-30T05:01:23;15.10;99.90
26745;DHT22;14342;50.960;13.880;2022-08-30T05:02:24;15.00;99.90
26745;DHT22;14342;50.960;13.880;2022-08-30T05:03:25;14.90;99.90
26745;DHT22;14342;50.960;13.880;2022-08-30T05:04:27;14.80;99.90
26745;DHT22;14342;50.960;13.880;2022-08-30T05:05:27;14.70;99.90
26745;DHT22;14342;50.960;13.880;2022-08-30T05:06:41;14.80;99.90
26745;DHT22;14342;50.960;13.880;2022-08-30T05:07:42;14.80;99.90
26745;DHT22;14342;50.960;13.880;2022-08-30T05:08:43;14.90;99.90
26745;DHT22;14342;50.960;13.880;2022-08-30T05:09:45;14.90;99.90
26745;DHT22;14342;50.960;13.880;2022-08-30T05:10:47;14.90;99.90
26745;DHT22;14342;50.960;13.880;2022-08-30T05:11:48;15.00;99.90
26745;DHT22;14342;50.960;13.880;2022-08-30T05:12:49;15.00;99.90
26745;DHT22;14342;50.960;13.880;2022-08-30T05:13:52;15.00;99.90
26745;DHT22;14342;50.960;13.880;2022-08-30T05:14:52;15.00;99.90
26745;DHT22;14342;50.960;13.880;2022-08-30T05:15:57;15.00;99.90
26745;DHT22;14342;50.960;13.880;2022-08-30T05:16:59;14.90;99.90
26745;DHT22;14342;50.960;13.880;2022-08-30T05:18:01;14.90;99.90
26745;DHT22;14342;50.960;13.880;2022-08-30T05:19:02;14.90;99.90
26745;DHT22;14342;50.960;13.880;2022-08-30T05:20:04;14.80;99.90
26745;DHT22;14342;50.960;13.880;2022-08-30T05:21:05;14.60;99.90
26745;DHT22;14342;50.960;13.880;2022-08-30T05:22:08;14.60;99.90
26745;DHT22;14342;50.960;13.880;2022-08-30T05:23:09;14.60;99.90
26745;DHT22;14342;50.960;13.880;2022-08-30T05:24:10;14.60;99.90
26745;DHT22;14342;50.960;13.880;2022-08-30T05:25:11;14.70;99.90
26745;DHT22;14342;50.960;13.880;2022-08-30T05:26:14;14.70;99.90
26745;DHT22;14342;50.960;13.880;2022-08-30T05:27:15;14.70;99.90
26745;DHT22;14342;50.960;13.880;2022-08-30T05:28:17;14.70;99.90
26745;DHT22;14342;50.960;13.880;2022-08-30T05:29:19;14.70;99.90
26745;DHT22;14342;50.960;13.880;2022-08-30T05:30:21;14.70;99.90
26745;DHT22;14342;50.960;13.880;2022-08-30T05:31:24;14.80;99.90
26745;DHT22;14342;50.960;13.880;2022-08-30T05:32:26;14.90;99.90
26745;DHT22;14342;50.960;13.880;2022-08-30T05:33:27;14.90;99.90
26745;DHT22;14342;50.960;13.880;2022-08-30T05:34:28;15.00;99.90
26745;DHT22;14342;50.960;13.880;2022-08-30T05:35:29;15.00;99.90
26745;DHT22;14342;50.960;13.880;2022-08-30T05:36:32;15.00;99.90
26745;DHT22;14342;50.960;13.880;2022-08-30T05:37:33;15.10;99.90
26745;DHT22;14342;50.960;13.880;2022-08-30T05:38:35;15.10;99.90
26745;DHT22;14342;50.960;13.880;2022-08-30T05:39:37;15.20;99.90
26745;DHT22;14342;50.960;13.880;2022-08-30T05:40:39;15.20;99.90
26745;DHT22;14342;50.960;13.880;2022-08-30T05:41:40;15.20;99.90
26745;DHT22;14342;50.960;13.880;2022-08-30T05:42:41;15.20;99.90
26745;DHT22;14342;50.960;13.880;2022-08-30T05:43:42;15.20;99.90
26745;DHT22;14342;50.960;13.880;2022-08-30T05:44:45;15.20;99.90
26745;DHT22;14342;50.960;13.880;2022-08-30T05:45:56;15.30;99.90
26745;DHT22;14342;50.960;13.880;2022-08-30T05:46:58;15.30;99.90
26745;DHT22;14342;50.960;13.880;2022-08-30T05:47:58;15.30;99.90
26745;DHT22;14342;50.960;13.880;2022-08-30T05:49:01;15.40;99.90
26745;DHT22;14342;50.960;13.880;2022-08-30T05:50:03;15.40;99.90
26745;DHT22;14342;50.960;13.880;2022-08-30T05:51:07;15.50;99.90
26745;DHT22;14342;50.960;13.880;2022-08-30T05:52:07;15.50;99.90
26745;DHT22;14342;50.960;13.880;2022-08-30T05:53:09;15.60;99.90
26745;DHT22;14342;50.960;13.880;2022-08-30T05:54:10;15.60;99.90
26745;DHT22;14342;50.960;13.880;2022-08-30T05:55:12;15.60;99.90
26745;DHT22;14342;50.960;13.880;2022-08-30T05:56:13;15.60;99.90
26745;DHT22;14342;50.960;13.880;2022-08-30T05:57:15;15.90;99.90
26745;DHT22;14342;50.960;13.880;2022-08-30T05:58:15;15.70;99.90
26745;DHT22;14342;50.960;13.880;2022-08-30T05:59:17;15.70;99.90
26745;DHT22;14342;50.960;13.880;2022-08-30T06:00:19;15.80;99.90
26745;DHT22;14342;50.960;13.880;2022-08-30T06:01:22;15.80;99.90
26745;DHT22;14342;50.960;13.880;2022-08-30T06:02:22;15.80;99.90
26745;DHT22;14342;50.960;13.880;2022-08-30T06:03:24;15.80;99.90
26745;DHT22;14342;50.960;13.880;2022-08-30T06:04:25;15.90;99.90
26745;DHT22;14342;50.960;13.880;2022-08-30T06:05:27;15.90;99.90
26745;DHT22;14342;50.960;13.880;2022-08-30T06:06:27;15.90;99.90
26745;DHT22;14342;50.960;13.880;2022-08-30T06:07:29;15.90;99.90
26745;DHT22;14342;50.960;13.880;2022-08-30T06:08:30;15.90;99.90
26745;DHT22;14342;50.960;13.880;2022-08-30T06:09:32;16.00;99.90
26745;DHT22;14342;50.960;13.880;2022-08-30T06:10:33;16.00;99.90
26745;DHT22;14342;50.960;13.880;2022-08-30T06:11:34;16.00;99.90
26745;DHT22;14342;50.960;13.880;2022-08-30T06:12:36;16.10;99.90
26745;DHT22;14342;50.960;13.880;2022-08-30T06:13:38;15.90;99.90
26745;DHT22;14342;50.960;13.880;2022-08-30T06:14:38;15.80;99.90
26745;DHT22;14342;50.960;13.880;2022-08-30T06:15:41;15.70;99.90
26745;DHT22;14342;50.960;13.880;2022-08-30T06:16:44;15.60;99.90
26745;DHT22;14342;50.960;13.880;2022-08-30T06:17:46;15.60;99.90
26745;DHT22;14342;50.960;13.880;2022-08-30T06:18:47;15.40;99.90
26745;DHT22;14342;50.960;13.880;2022-08-30T06:19:48;15.30;99.90
26745;DHT22;14342;50.960;13.880;2022-08-30T06:20:49;15.20;99.90
26745;DHT22;14342;50.960;13.880;2022-08-30T06:21:50;15.10;99.90
26745;DHT22;14342;50.960;13.880;2022-08-30T06:22:52;15.10;99.90
26745;DHT22;14342;50.960;13.880;2022-08-30T06:23:53;15.20;99.90